sensor_id;sensor_type;location;lat;lon;timestamp;pressure;altitude;pressure_sealevel;temperature;humidity
4972;BME280;2501;51.214;6.768;2023-09-19T00:02:16;100573.69;;;15.59;97.38
4972;BME280;2501;51.214;6.768;2023-09-19T00:04:44;100582.50;;;15.59;97.34
4972;BME280;2501;51.214;6.768;2023-09-19T00:07:14;100586.84;;;15.63;97.13
4972;BME280;2501;51.214;6.768;2023-09-19T00:09:43;100586.00;;;15.60;97.63
4972;BME280;2501;51.214;6.768;2023-09-19T00:12:12;100599.34;;;15.52;97.82
4972;BME280;2501;51.214;6.768;2023-09-19T00:14:43;100592.25;;;15.57;98.35
4972;BME280;2501;51.214;6.768;2023-09-19T00:17:11;100592.19;;;15.59;97.57
4972;BME280;2501;51.214;6.768;2023-09-19T00:19:41;100590.44;;;15.59;97.28
4972;BME280;2501;51.214;6.768;2023-09-19T00:22:14;100589.44;;;15.66;96.42
4972;BME280;2501;51.214;6.768;2023-09-19T00:24:44;100593.00;;;15.64;96.04
4972;BME280;2501;51.214;6.768;2023-09-19T00:27:12;100590.50;;;15.56;95.44
4972;BME280;2501;51.214;6.768;2023-09-19T00:29:43;100590.44;;;15.59;95.58
4972;BME280;2501;51.214;6.768;2023-09-19T00:32:12;100600.22;;;15.53;95.42
4972;BME280;2501;51.214;6.768;2023-09-19T00:34:40;100601.16;;;15.49;95.60
4972;BME280;2501;51.214;6.768;2023-09-19T00:37:09;100599.44;;;15.46;95.85
4972;BME280;2501;51.214;6.768;2023-09-19T00:39:37;100601.72;;;15.69;95.34
4972;BME280;2501;51.214;6.768;2023-09-19T00:42:06;100601.72;;;15.71;94.84
4972;BME280;2501;51.214;6.768;2023-09-19T00:44:34;100605.47;;;15.57;95.05
4972;BME280;2501;51.214;6.768;2023-09-19T00:47:06;100611.63;;;15.58;94.85
4972;BME280;2501;51.214;6.768;2023-09-19T00:49:34;100601.06;;;15.55;94.32
4972;BME280;2501;51.214;6.768;2023-09-19T00:52:04;100612.44;;;15.60;94.18
4972;BME280;2501;51.214;6.768;2023-09-19T00:54:35;100608.22;;;15.48;94.54
4972;BME280;2501;51.214;6.768;2023-09-19T00:57:04;100620.56;;;15.48;94.94
4972;BME280;2501;51.214;6.768;2023-09-19T00:59:33;100613.47;;;15.51;94.99
4972;BME280;2501;51.214;6.768;2023-09-19T01:02:02;100615.38;;;15.42;95.29
4972;BME280;2501;51.214;6.768;2023-09-19T01:04:33;100625.13;;;15.40;95.54
4972;BME280;2501;51.214;6.768;2023-09-19T01:07:02;100623.41;;;15.36;96.09
4972;BME280;2501;51.214;6.768;2023-09-19T01:09:33;100621.69;;;15.33;95.91
4972;BME280;2501;51.214;6.768;2023-09-19T01:12:04;100635.59;;;15.44;96.04
4972;BME280;2501;51.214;6.768;2023-09-19T01:14:42;100634.84;;;15.36;96.29
4972;BME280;2501;51.214;6.768;2023-09-19T01:17:18;100638.44;;;15.30;96.58
4972;BME280;2501;51.214;6.768;2023-09-19T01:20:11;100635.59;;;15.44;96.73
4972;BME280;2501;51.214;6.768;2023-09-19T01:22:52;100641.91;;;15.36;96.85
4972;BME280;2501;51.214;6.768;2023-09-19T01:28:30;100651.59;;;15.35;97.58
4972;BME280;2501;51.214;6.768;2023-09-19T01:31:08;100649.91;;;15.29;96.69
4972;BME280;2501;51.214;6.768;2023-09-19T01:33:55;100647.84;;;15.50;95.81
4972;BME280;2501;51.214;6.768;2023-09-19T01:36:31;100654.97;;;15.43;95.57
4972;BME280;2501;51.214;6.768;2023-09-19T01:39:01;100651.34;;;15.52;94.56
4972;BME280;2501;51.214;6.768;2023-09-19T01:41:47;100660.81;;;15.68;93.76
4972;BME280;2501;51.214;6.768;2023-09-19T01:44:24;100662.78;;;15.55;94.01
4972;BME280;2501;51.214;6.768;2023-09-19T01:46:58;100669.72;;;15.61;93.76
4972;BME280;2501;51.214;6.768;2023-09-19T01:49:37;100663.63;;;15.54;94.63
4972;BME280;2501;51.214;6.768;2023-09-19T01:52:12;100668.16;;;15.46;94.32
4972;BME280;2501;51.214;6.768;2023-09-19T01:54:47;100670.09;;;15.35;95.09
4972;BME280;2501;51.214;6.768;2023-09-19T01:57:22;100666.59;;;15.33;95.88
4972;BME280;2501;51.214;6.768;2023-09-19T01:59:57;100669.41;;;15.22;96.47
4972;BME280;2501;51.214;6.768;2023-09-19T02:02:34;100670.91;;;15.40;96.07
4972;BME280;2501;51.214;6.768;2023-09-19T02:05:05;100668.41;;;15.31;96.45
4972;BME280;2501;51.214;6.768;2023-09-19T02:07:33;100677.13;;;15.38;96.07
4972;BME280;2501;51.214;6.768;2023-09-19T02:10:04;100677.97;;;15.40;95.25
4972;BME280;2501;51.214;6.768;2023-09-19T02:12:32;100680.38;;;15.56;95.04
4972;BME280;2501;51.214;6.768;2023-09-19T02:15:01;100680.78;;;15.26;94.37
4972;BME280;2501;51.214;6.768;2023-09-19T02:17:35;100680.53;;;15.44;94.44
4972;BME280;2501;51.214;6.768;2023-09-19T02:20:04;100679.50;;;15.54;94.01
4972;BME280;2501;51.214;6.768;2023-09-19T02:22:36;100672.78;;;15.32;93.47
4972;BME280;2501;51.214;6.768;2023-09-19T02:25:05;100679.75;;;15.39;92.68
4972;BME280;2501;51.214;6.768;2023-09-19T02:27:34;100683.06;;;15.50;91.27
4972;BME280;2501;51.214;6.768;2023-09-19T02:30:03;100692.75;;;15.51;90.60
4972;BME280;2501;51.214;6.768;2023-09-19T02:32:35;100696.53;;;15.33;90.30
4972;BME280;2501;51.214;6.768;2023-09-19T02:35:06;100696.50;;;15.37;88.71
4972;BME280;2501;51.214;6.768;2023-09-19T02:37:36;100694.72;;;15.39;87.43
4972;BME280;2501;51.214;6.768;2023-09-19T02:40:06;100698.44;;;15.24;86.84
4972;BME280;2501;51.214;6.768;2023-09-19T02:42:44;100707.94;;;15.39;86.34
4972;BME280;2501;51.214;6.768;2023-09-19T02:45:16;100700.97;;;15.31;85.20
4972;BME280;2501;51.214;6.768;2023-09-19T02:47:48;100700.78;;;15.44;85.48
4972;BME280;2501;51.214;6.768;2023-09-19T02:50:17;100692.13;;;15.36;85.25
4972;BME280;2501;51.214;6.768;2023-09-19T02:52:46;100690.41;;;15.31;85.98
4972;BME280;2501;51.214;6.768;2023-09-19T02:55:16;100693.94;;;15.32;85.36
4972;BME280;2501;51.214;6.768;2023-09-19T02:57:47;100697.84;;;15.04;86.41
4972;BME280;2501;51.214;6.768;2023-09-19T03:00:17;100701.31;;;15.07;87.04
4972;BME280;2501;51.214;6.768;2023-09-19T03:02:49;100702.13;;;15.12;86.41
4972;BME280;2501;51.214;6.768;2023-09-19T03:05:18;100703.78;;;15.21;86.12
4972;BME280;2501;51.214;6.768;2023-09-19T03:07:47;100704.72;;;15.17;85.94
4972;BME280;2501;51.214;6.768;2023-09-19T03:10:16;100712.84;;;15.00;86.79
4972;BME280;2501;51.214;6.768;2023-09-19T03:12:45;100721.50;;;15.13;85.80
4972;BME280;2501;51.214;6.768;2023-09-19T03:15:14;100715.59;;;14.91;86.25
4972;BME280;2501;51.214;6.768;2023-09-19T03:17:44;100726.16;;;14.91;86.02
4972;BME280;2501;51.214;6.768;2023-09-19T03:20:15;100721.63;;;15.02;85.42
4972;BME280;2501;51.214;6.768;2023-09-19T03:22:44;100713.97;;;14.81;86.21
4972;BME280;2501;51.214;6.768;2023-09-19T03:25:13;100708.66;;;14.85;86.67
4972;BME280;2501;51.214;6.768;2023-09-19T03:27:42;100713.13;;;14.77;86.73
4972;BME280;2501;51.214;6.768;2023-09-19T03:30:11;100711.38;;;14.78;87.34
4972;BME280;2501;51.214;6.768;2023-09-19T03:32:44;100715.91;;;14.67;87.84
4972;BME280;2501;51.214;6.768;2023-09-19T03:35:18;100720.31;;;14.65;88.25
4972;BME280;2501;51.214;6.768;2023-09-19T03:37:46;100717.69;;;14.63;88.61
4972;BME280;2501;51.214;6.768;2023-09-19T03:40:15;100719.44;;;14.64;88.86
4972;BME280;2501;51.214;6.768;2023-09-19T03:42:45;100721.16;;;14.71;89.03
4972;BME280;2501;51.214;6.768;2023-09-19T03:45:14;100715.94;;;14.62;89.32
4972;BME280;2501;51.214;6.768;2023-09-19T03:47:43;100709.75;;;14.68;89.52
4972;BME280;2501;51.214;6.768;2023-09-19T03:50:13;100709.91;;;14.54;89.83
4972;BME280;2501;51.214;6.768;2023-09-19T03:52:45;100710.81;;;14.51;90.40
4972;BME280;2501;51.214;6.768;2023-09-19T03:55:14;100702.84;;;14.54;90.88
4972;BME280;2501;51.214;6.768;2023-09-19T03:57:42;100715.09;;;14.58;90.67
4972;BME280;2501;51.214;6.768;2023-09-19T04:00:16;100709.06;;;14.50;90.57
4972;BME280;2501;51.214;6.768;2023-09-19T04:02:46;100712.59;;;14.49;90.85
4972;BME280;2501;51.214;6.768;2023-09-19T04:05:15;100706.41;;;14.50;90.60
4972;BME280;2501;51.214;6.768;2023-09-19T04:07:46;100710.66;;;14.62;90.83
4972;BME280;2501;51.214;6.768;2023-09-19T04:10:15;100709.84;;;14.55;90.22
4972;BME280;2501;51.214;6.768;2023-09-19T04:12:50;100716.97;;;14.49;90.31
4972;BME280;2501;51.214;6.768;2023-09-19T04:15:20;100717.78;;;14.55;90.70
4972;BME280;2501;51.214;6.768;2023-09-19T04:17:49;100715.91;;;14.67;90.94
4972;BME280;2501;51.214;6.768;2023-09-19T04:20:18;100713.41;;;14.54;90.62
4972;BME280;2501;51.214;6.768;2023-09-19T04:22:51;100709.94;;;14.49;90.77
4972;BME280;2501;51.214;6.768;2023-09-19T04:25:20;100721.38;;;14.51;91.08
4972;BME280;2501;51.214;6.768;2023-09-19T04:27:48;100716.09;;;14.50;90.50
4972;BME280;2501;51.214;6.768;2023-09-19T04:30:17;100713.53;;;14.42;90.52
4972;BME280;2501;51.214;6.768;2023-09-19T04:32:46;100724.88;;;14.53;90.09
4972;BME280;2501;51.214;6.768;2023-09-19T04:35:16;100730.19;;;14.47;90.36
4972;BME280;2501;51.214;6.768;2023-09-19T04:37:44;100730.16;;;14.50;90.25
4972;BME280;2501;51.214;6.768;2023-09-19T04:40:16;100729.28;;;14.50;89.75
4972;BME280;2501;51.214;6.768;2023-09-19T04:42:45;100724.94;;;14.44;90.14
4972;BME280;2501;51.214;6.768;2023-09-19T04:45:13;100714.41;;;14.41;90.19
4972;BME280;2501;51.214;6.768;2023-09-19T04:47:42;100723.16;;;14.46;91.01
4972;BME280;2501;51.214;6.768;2023-09-19T04:50:11;100715.97;;;14.60;90.28
4972;BME280;2501;51.214;6.768;2023-09-19T04:52:40;100731.09;;;14.46;90.63
4972;BME280;2501;51.214;6.768;2023-09-19T04:55:11;100729.31;;;14.47;90.79
4972;BME280;2501;51.214;6.768;2023-09-19T04:57:44;100725.78;;;14.48;90.44
4972;BME280;2501;51.214;6.768;2023-09-19T05:00:14;100729.34;;;14.42;90.25
4972;BME280;2501;51.214;6.768;2023-09-19T05:02:48;100732.88;;;14.43;90.74
4972;BME280;2501;51.214;6.768;2023-09-19T05:05:17;100733.75;;;14.43;90.41
4972;BME280;2501;51.214;6.768;2023-09-19T05:07:47;100727.50;;;14.52;90.22
4972;BME280;2501;51.214;6.768;2023-09-19T05:10:16;100739.81;;;14.53;89.92
4972;BME280;2501;51.214;6.768;2023-09-19T05:12:48;100739.00;;;14.45;89.31
4972;BME280;2501;51.214;6.768;2023-09-19T05:15:17;100750.25;;;14.63;89.27
4972;BME280;2501;51.214;6.768;2023-09-19T05:17:48;100754.59;;;14.71;88.70
4972;BME280;2501;51.214;6.768;2023-09-19T05:20:20;100763.44;;;14.67;87.34
4972;BME280;2501;51.214;6.768;2023-09-19T05:22:57;100768.72;;;14.65;86.69
4972;BME280;2501;51.214;6.768;2023-09-19T05:25:27;100762.56;;;14.66;86.63
4972;BME280;2501;51.214;6.768;2023-09-19T05:27:59;100770.47;;;14.65;86.44
4972;BME280;2501;51.214;6.768;2023-09-19T05:30:29;100773.81;;;14.80;85.87
4972;BME280;2501;51.214;6.768;2023-09-19T05:32:58;100782.50;;;14.91;84.99
4972;BME280;2501;51.214;6.768;2023-09-19T05:35:27;100793.69;;;15.13;83.59
4972;BME280;2501;51.214;6.768;2023-09-19T05:37:56;100787.44;;;15.22;82.66
4972;BME280;2501;51.214;6.768;2023-09-19T05:40:26;100793.63;;;15.19;81.77
4972;BME280;2501;51.214;6.768;2023-09-19T05:42:54;100808.47;;;15.29;81.80
4972;BME280;2501;51.214;6.768;2023-09-19T05:45:25;100801.19;;;15.47;80.38
4972;BME280;2501;51.214;6.768;2023-09-19T05:47:54;100810.13;;;15.40;79.97
4972;BME280;2501;51.214;6.768;2023-09-19T05:50:30;100808.38;;;15.37;81.01
4972;BME280;2501;51.214;6.768;2023-09-19T05:52:59;100802.97;;;15.45;81.43
4972;BME280;2501;51.214;6.768;2023-09-19T05:55:29;100821.84;;;15.16;81.18
4972;BME280;2501;51.214;6.768;2023-09-19T05:57:58;100814.38;;;15.48;81.08
4972;BME280;2501;51.214;6.768;2023-09-19T06:00:31;100826.00;;;15.37;80.55
4972;BME280;2501;51.214;6.768;2023-09-19T06:03:00;100824.91;;;15.56;79.88
4972;BME280;2501;51.214;6.768;2023-09-19T06:05:28;100831.72;;;15.72;78.58
4972;BME280;2501;51.214;6.768;2023-09-19T06:07:57;100848.00;;;15.40;79.82
4972;BME280;2501;51.214;6.768;2023-09-19T06:10:27;100849.56;;;15.56;79.83
4972;BME280;2501;51.214;6.768;2023-09-19T06:12:57;100840.06;;;15.39;80.42
4972;BME280;2501;51.214;6.768;2023-09-19T06:15:26;100844.22;;;15.59;80.28
4972;BME280;2501;51.214;6.768;2023-09-19T06:17:58;100835.28;;;15.71;79.78
4972;BME280;2501;51.214;6.768;2023-09-19T06:20:28;100832.78;;;15.59;79.79
4972;BME280;2501;51.214;6.768;2023-09-19T06:22:57;100829.53;;;15.37;80.64
4972;BME280;2501;51.214;6.768;2023-09-19T06:25:27;100833.91;;;15.38;81.23
4972;BME280;2501;51.214;6.768;2023-09-19T06:27:56;100833.91;;;15.40;81.86
4972;BME280;2501;51.214;6.768;2023-09-19T06:30:24;100828.53;;;15.43;82.07
4972;BME280;2501;51.214;6.768;2023-09-19T06:33:00;100831.16;;;15.46;81.97
4972;BME280;2501;51.214;6.768;2023-09-19T06:35:32;100832.03;;;15.45;82.49
4972;BME280;2501;51.214;6.768;2023-09-19T06:38:02;100835.59;;;15.42;82.68
4972;BME280;2501;51.214;6.768;2023-09-19T06:40:31;100825.16;;;15.33;83.02
4972;BME280;2501;51.214;6.768;2023-09-19T06:42:59;100828.69;;;15.33;83.33
4972;BME280;2501;51.214;6.768;2023-09-19T06:45:29;100822.50;;;15.33;84.01
4972;BME280;2501;51.214;6.768;2023-09-19T06:48:00;100828.66;;;15.37;84.62
4972;BME280;2501;51.214;6.768;2023-09-19T06:50:30;100835.69;;;15.36;84.42
4972;BME280;2501;51.214;6.768;2023-09-19T06:53:00;100833.09;;;15.31;83.91
4972;BME280;2501;51.214;6.768;2023-09-19T06:55:28;100834.78;;;15.40;84.07
4972;BME280;2501;51.214;6.768;2023-09-19T06:57:57;100839.88;;;15.54;83.59
4972;BME280;2501;51.214;6.768;2023-09-19T07:00:26;100836.09;;;15.75;82.63
4972;BME280;2501;51.214;6.768;2023-09-19T07:03:01;100842.84;;;15.25;83.79
4972;BME280;2501;51.214;6.768;2023-09-19T07:05:36;100850.50;;;15.48;83.88
4972;BME280;2501;51.214;6.768;2023-09-19T07:08:06;100838.63;;;15.82;83.27
4972;BME280;2501;51.214;6.768;2023-09-19T07:10:36;100842.31;;;15.71;82.40
4972;BME280;2501;51.214;6.768;2023-09-19T07:13:06;100844.94;;;15.72;83.34
4972;BME280;2501;51.214;6.768;2023-09-19T07:15:38;100847.34;;;15.90;82.24
4972;BME280;2501;51.214;6.768;2023-09-19T07:18:15;100848.47;;;15.73;82.64
4972;BME280;2501;51.214;6.768;2023-09-19T07:20:46;100851.66;;;15.94;82.23
4972;BME280;2501;51.214;6.768;2023-09-19T07:23:17;100845.09;;;16.21;80.66
4972;BME280;2501;51.214;6.768;2023-09-19T07:25:46;100847.13;;;16.04;80.31
4972;BME280;2501;51.214;6.768;2023-09-19T07:28:14;100860.59;;;15.89;81.49
4972;BME280;2501;51.214;6.768;2023-09-19T07:30:43;100851.03;;;16.35;80.44
4972;BME280;2501;51.214;6.768;2023-09-19T07:33:14;100860.31;;;16.07;79.79
4972;BME280;2501;51.214;6.768;2023-09-19T07:35:45;100856.41;;;15.73;81.63
4972;BME280;2501;51.214;6.768;2023-09-19T07:38:13;100866.81;;;16.43;80.47
4972;BME280;2501;51.214;6.768;2023-09-19T07:40:43;100863.91;;;16.01;79.92
4972;BME280;2501;51.214;6.768;2023-09-19T07:43:11;100863.88;;;16.05;80.06
4972;BME280;2501;51.214;6.768;2023-09-19T07:45:40;100866.50;;;16.08;80.85
4972;BME280;2501;51.214;6.768;2023-09-19T07:48:08;100862.69;;;16.25;80.28
4972;BME280;2501;51.214;6.768;2023-09-19T07:50:42;100868.66;;;16.38;78.74
4972;BME280;2501;51.214;6.768;2023-09-19T07:53:11;100863.41;;;16.35;79.04
4972;BME280;2501;51.214;6.768;2023-09-19T07:55:43;100862.56;;;16.31;79.11
4972;BME280;2501;51.214;6.768;2023-09-19T07:58:13;100868.59;;;16.41;79.96
4972;BME280;2501;51.214;6.768;2023-09-19T08:00:41;100867.81;;;16.34;79.13
4972;BME280;2501;51.214;6.768;2023-09-19T08:03:10;100869.03;;;16.69;77.94
4972;BME280;2501;51.214;6.768;2023-09-19T08:05:43;100866.53;;;16.60;77.81
4972;BME280;2501;51.214;6.768;2023-09-19T08:08:13;100876.94;;;16.72;77.56
4972;BME280;2501;51.214;6.768;2023-09-19T08:10:42;100878.06;;;16.56;76.86
4972;BME280;2501;51.214;6.768;2023-09-19T08:13:11;100881.72;;;16.47;77.51
4972;BME280;2501;51.214;6.768;2023-09-19T08:15:43;100866.91;;;16.91;76.50
4972;BME280;2501;51.214;6.768;2023-09-19T08:18:12;100869.06;;;16.67;76.75
4972;BME280;2501;51.214;6.768;2023-09-19T08:20:43;100869.16;;;16.61;76.67
4972;BME280;2501;51.214;6.768;2023-09-19T08:23:17;100876.16;;;16.65;76.13
4972;BME280;2501;51.214;6.768;2023-09-19T08:25:46;100871.13;;;16.99;76.20
4972;BME280;2501;51.214;6.768;2023-09-19T08:28:15;100878.91;;;17.10;75.60
4972;BME280;2501;51.214;6.768;2023-09-19T08:30:47;100879.47;;;17.26;74.29
4972;BME280;2501;51.214;6.768;2023-09-19T08:33:16;100885.34;;;17.42;73.60
4972;BME280;2501;51.214;6.768;2023-09-19T08:35:47;100889.41;;;17.59;73.49
4972;BME280;2501;51.214;6.768;2023-09-19T08:38:16;100881.16;;;17.31;72.94
4972;BME280;2501;51.214;6.768;2023-09-19T08:40:45;100882.25;;;17.20;74.04
4972;BME280;2501;51.214;6.768;2023-09-19T08:43:14;100885.66;;;17.26;73.38
4972;BME280;2501;51.214;6.768;2023-09-19T08:45:42;100895.63;;;17.14;74.67
4972;BME280;2501;51.214;6.768;2023-09-19T08:48:17;100890.22;;;17.18;73.49
4972;BME280;2501;51.214;6.768;2023-09-19T08:50:52;100885.19;;;17.49;72.46
4972;BME280;2501;51.214;6.768;2023-09-19T08:53:27;100893.94;;;17.53;71.35
4972;BME280;2501;51.214;6.768;2023-09-19T08:55:59;100886.56;;;17.70;71.69
4972;BME280;2501;51.214;6.768;2023-09-19T08:58:33;100893.94;;;17.53;71.03
4972;BME280;2501;51.214;6.768;2023-09-19T09:01:03;100888.84;;;17.87;69.34
4972;BME280;2501;51.214;6.768;2023-09-19T09:03:34;100890.97;;;18.11;68.13
4972;BME280;2501;51.214;6.768;2023-09-19T09:06:08;100893.59;;;17.71;67.92
4972;BME280;2501;51.214;6.768;2023-09-19T09:08:41;100893.41;;;17.82;68.10
4972;BME280;2501;51.214;6.768;2023-09-19T09:11:10;100887.47;;;18.09;67.44
4972;BME280;2501;51.214;6.768;2023-09-19T09:13:39;100884.31;;;17.92;68.34
4972;BME280;2501;51.214;6.768;2023-09-19T09:16:08;100881.34;;;18.05;66.46
4972;BME280;2501;51.214;6.768;2023-09-19T09:18:38;100880.41;;;18.08;67.00
4972;BME280;2501;51.214;6.768;2023-09-19T09:21:09;100869.47;;;18.59;65.39
4972;BME280;2501;51.214;6.768;2023-09-19T09:23:41;100887.47;;;18.09;66.31
4972;BME280;2501;51.214;6.768;2023-09-19T09:26:09;100871.84;;;18.34;64.92
4972;BME280;2501;51.214;6.768;2023-09-19T09:28:45;100876.00;;;18.44;64.75
4972;BME280;2501;51.214;6.768;2023-09-19T09:31:25;100879.66;;;18.40;64.65
4972;BME280;2501;51.214;6.768;2023-09-19T09:33:53;100881.84;;;18.58;64.20
4972;BME280;2501;51.214;6.768;2023-09-19T09:36:37;100878.09;;;18.68;64.61
4972;BME280;2501;51.214;6.768;2023-09-19T09:39:07;100869.94;;;18.76;64.03
4972;BME280;2501;51.214;6.768;2023-09-19T09:41:44;100873.88;;;18.94;63.14
4972;BME280;2501;51.214;6.768;2023-09-19T09:44:14;100872.34;;;18.85;61.93
4972;BME280;2501;51.214;6.768;2023-09-19T09:46:44;100877.50;;;18.91;62.25
4972;BME280;2501;51.214;6.768;2023-09-19T09:49:49;100876.16;;;18.38;63.32
4972;BME280;2501;51.214;6.768;2023-09-19T09:52:44;100868.50;;;18.63;63.08
4972;BME280;2501;51.214;6.768;2023-09-19T09:55:12;100869.22;;;19.03;62.03
4972;BME280;2501;51.214;6.768;2023-09-19T09:57:41;100870.69;;;19.13;61.45
4972;BME280;2501;51.214;6.768;2023-09-19T10:00:10;100870.41;;;18.92;61.26
4972;BME280;2501;51.214;6.768;2023-09-19T10:02:45;100879.63;;;18.41;62.88
4972;BME280;2501;51.214;6.768;2023-09-19T10:05:15;100872.84;;;18.99;61.89
4972;BME280;2501;51.214;6.768;2023-09-19T10:08:10;100868.94;;;18.80;62.51
4972;BME280;2501;51.214;6.768;2023-09-19T10:10:44;100878.31;;;18.59;62.82
4972;BME280;2501;51.214;6.768;2023-09-19T10:13:20;100863.03;;;18.69;61.82
4972;BME280;2501;51.214;6.768;2023-09-19T10:15:51;100861.81;;;18.82;60.95
4972;BME280;2501;51.214;6.768;2023-09-19T10:18:21;100857.41;;;18.81;61.79
4972;BME280;2501;51.214;6.768;2023-09-19T10:20:50;100860.03;;;18.83;62.06
4972;BME280;2501;51.214;6.768;2023-09-19T10:23:23;100851.75;;;18.58;62.84
4972;BME280;2501;51.214;6.768;2023-09-19T10:25:56;100851.13;;;18.84;61.95
4972;BME280;2501;51.214;6.768;2023-09-19T10:28:28;100842.16;;;18.88;60.60
4972;BME280;2501;51.214;6.768;2023-09-19T10:30:57;100826.41;;;19.12;59.42
4972;BME280;2501;51.214;6.768;2023-09-19T10:33:35;100838.25;;;18.68;59.29
4972;BME280;2501;51.214;6.768;2023-09-19T10:36:05;100834.88;;;18.62;60.44
4972;BME280;2501;51.214;6.768;2023-09-19T10:38:38;100830.56;;;18.90;60.78
4972;BME280;2501;51.214;6.768;2023-09-19T10:41:08;100841.50;;;19.12;59.87
4972;BME280;2501;51.214;6.768;2023-09-19T10:43:38;100838.84;;;19.12;59.93
4972;BME280;2501;51.214;6.768;2023-09-19T10:46:10;100834.53;;;19.06;59.16
4972;BME280;2501;51.214;6.768;2023-09-19T10:48:39;100843.03;;;19.21;58.94
4972;BME280;2501;51.214;6.768;2023-09-19T10:51:11;100840.78;;;18.73;59.90
4972;BME280;2501;51.214;6.768;2023-09-19T10:53:51;100835.69;;;18.98;59.02
4972;BME280;2501;51.214;6.768;2023-09-19T10:56:24;100849.13;;;18.92;57.85
4972;BME280;2501;51.214;6.768;2023-09-19T10:59:05;100843.84;;;18.90;58.92
4972;BME280;2501;51.214;6.768;2023-09-19T11:01:46;100848.63;;;18.77;59.91
4972;BME280;2501;51.214;6.768;2023-09-19T11:04:24;100843.88;;;18.89;59.08
4972;BME280;2501;51.214;6.768;2023-09-19T11:07:00;100842.91;;;18.93;58.45
4972;BME280;2501;51.214;6.768;2023-09-19T11:09:48;100851.56;;;19.32;57.98
4972;BME280;2501;51.214;6.768;2023-09-19T11:24:32;100846.84;;;19.41;57.32
4972;BME280;2501;51.214;6.768;2023-09-19T11:27:14;100841.47;;;19.43;56.76
4972;BME280;2501;51.214;6.768;2023-09-19T11:29:42;100840.84;;;19.66;56.16
4972;BME280;2501;51.214;6.768;2023-09-19T11:32:14;100851.53;;;19.64;55.15
4972;BME280;2501;51.214;6.768;2023-09-19T11:34:46;100856.19;;;19.25;56.00
4972;BME280;2501;51.214;6.768;2023-09-19T11:40:28;100851.44;;;19.36;56.42
4972;BME280;2501;51.214;6.768;2023-09-19T11:42:59;100843.63;;;19.30;55.46
4972;BME280;2501;51.214;6.768;2023-09-19T11:48:29;100844.56;;;19.90;54.71
4972;BME280;2501;51.214;6.768;2023-09-19T11:51:00;100833.59;;;19.40;55.12
4972;BME280;2501;51.214;6.768;2023-09-19T11:53:33;100837.31;;;19.65;54.65
4972;BME280;2501;51.214;6.768;2023-09-19T11:56:06;100842.13;;;19.82;54.67
4972;BME280;2501;51.214;6.768;2023-09-19T11:58:41;100826.31;;;20.05;53.54
4972;BME280;2501;51.214;6.768;2023-09-19T12:01:12;100836.00;;;19.78;53.89
4972;BME280;2501;51.214;6.768;2023-09-19T12:03:47;100830.47;;;19.86;53.55
4972;BME280;2501;51.214;6.768;2023-09-19T12:06:16;100823.66;;;19.76;53.94
4972;BME280;2501;51.214;6.768;2023-09-19T12:08:45;100824.63;;;20.03;53.06
4972;BME280;2501;51.214;6.768;2023-09-19T12:11:15;100819.34;;;20.01;53.00
4972;BME280;2501;51.214;6.768;2023-09-19T12:13:48;100812.09;;;20.06;52.73
4972;BME280;2501;51.214;6.768;2023-09-19T12:16:19;100806.06;;;20.00;52.53
4972;BME280;2501;51.214;6.768;2023-09-19T12:18:50;100809.03;;;19.91;51.66
4972;BME280;2501;51.214;6.768;2023-09-19T12:21:22;100815.50;;;19.82;52.99
4972;BME280;2501;51.214;6.768;2023-09-19T12:24:06;100813.53;;;19.89;52.06
4972;BME280;2501;51.214;6.768;2023-09-19T12:26:41;100802.78;;;19.92;51.74
4972;BME280;2501;51.214;6.768;2023-09-19T12:29:16;100809.28;;;19.83;51.78
4972;BME280;2501;51.214;6.768;2023-09-19T12:31:52;100795.88;;;19.86;51.90
4972;BME280;2501;51.214;6.768;2023-09-19T12:34:24;100789.38;;;19.95;52.07
4972;BME280;2501;51.214;6.768;2023-09-19T12:37:06;100801.28;;;19.83;52.30
4972;BME280;2501;51.214;6.768;2023-09-19T12:39:38;100781.75;;;20.10;52.40
4972;BME280;2501;51.214;6.768;2023-09-19T12:42:08;100791.47;;;20.11;50.29
4972;BME280;2501;51.214;6.768;2023-09-19T12:44:44;100779.06;;;19.84;51.38
4972;BME280;2501;51.214;6.768;2023-09-19T12:47:14;100776.91;;;20.23;52.36
4972;BME280;2501;51.214;6.768;2023-09-19T12:50:09;100760.16;;;20.20;51.71
4972;BME280;2501;51.214;6.768;2023-09-19T12:52:44;100758.50;;;20.15;51.68
4972;BME280;2501;51.214;6.768;2023-09-19T12:55:24;100764.53;;;20.22;51.10
4972;BME280;2501;51.214;6.768;2023-09-19T12:58:03;100770.66;;;20.50;50.91
4972;BME280;2501;51.214;6.768;2023-09-19T13:00:39;100763.31;;;20.31;50.71
4972;BME280;2501;51.214;6.768;2023-09-19T13:03:16;100761.09;;;20.45;49.60
4972;BME280;2501;51.214;6.768;2023-09-19T13:05:51;100763.59;;;20.49;50.65
4972;BME280;2501;51.214;6.768;2023-09-19T13:08:23;100760.22;;;20.69;50.00
4972;BME280;2501;51.214;6.768;2023-09-19T13:11:09;100767.56;;;20.38;49.67
4972;BME280;2501;51.214;6.768;2023-09-19T13:13:39;100771.53;;;20.51;50.32
4972;BME280;2501;51.214;6.768;2023-09-19T13:16:12;100766.16;;;20.53;49.66
4972;BME280;2501;51.214;6.768;2023-09-19T13:18:46;100773.19;;;20.55;49.50
4972;BME280;2501;51.214;6.768;2023-09-19T13:21:17;100775.88;;;20.78;49.98
4972;BME280;2501;51.214;6.768;2023-09-19T13:23:55;100783.00;;;21.28;49.08
4972;BME280;2501;51.214;6.768;2023-09-19T13:26:25;100767.28;;;21.65;48.21
4972;BME280;2501;51.214;6.768;2023-09-19T13:28:53;100761.47;;;22.63;45.15
4972;BME280;2501;51.214;6.768;2023-09-19T13:31:24;100770.28;;;22.65;45.21
4972;BME280;2501;51.214;6.768;2023-09-19T13:33:53;100780.56;;;21.90;47.29
4972;BME280;2501;51.214;6.768;2023-09-19T13:36:21;100781.41;;;21.69;47.88
4972;BME280;2501;51.214;6.768;2023-09-19T13:38:50;100773.31;;;21.00;49.09
4972;BME280;2501;51.214;6.768;2023-09-19T13:41:18;100783.19;;;21.23;49.25
4972;BME280;2501;51.214;6.768;2023-09-19T13:43:47;100763.59;;;21.24;48.86
4972;BME280;2501;51.214;6.768;2023-09-19T13:46:15;100767.84;;;20.80;49.71
4972;BME280;2501;51.214;6.768;2023-09-19T13:48:53;100772.09;;;20.85;50.27
4972;BME280;2501;51.214;6.768;2023-09-19T13:51:21;100781.63;;;20.93;50.45
4972;BME280;2501;51.214;6.768;2023-09-19T13:53:51;100779.22;;;20.85;50.37
4972;BME280;2501;51.214;6.768;2023-09-19T13:56:19;100778.28;;;20.86;51.20